Alderson, West Virginia
Current Conditions -  °F | °C
As of 3:15 PM on Saturday 25 Oct 2014 (Local Time) from KLWB Reporting Station
Scattered Clouds Scattered Clouds  
Wind Chill: 67°   Ceiling: Unl
Heat Index: 67°   Visibility: 10mi
Dew Point: 36°   Wind: 9mph
Humidity: 32%   Direction: 310°NW
Pressure: 29.95"   Gusts: NA
Location:  37.73°N, 80.64°W
Report Text: KLWB 251915Z AUTO 31008KT 280V340 10SM SCT075 20/02 A2995 RMK AO2 T01970024
Loading
Personal Weather Stations






























Interactive Weather Map
Tropical Storm Tracking
New forecast layout! Learn more

10-Day Weather Forecast

Advertisements
Track Severe Weather on mobile